Mill Creek, Pennsylvania
Current Conditions -  °F | °C
As of 11:53 PM on Friday 19 Dec 2014 (Local Time) from KAOO Reporting Station
Overcast Overcast  
Wind Chill: 18°   Ceiling: 2300
Heat Index: 26°   Visibility: 10mi
Dew Point: 18°   Wind: 7mph
Humidity: 71%   Direction: 320°NW
Pressure: 30.21"   Gusts: NA
Location:  40.44°N, 77.93°W
Report Text: KAOO 200453Z AUTO 32006KT 10SM OVC023 M03/M08 A3021 RMK AO2 SLP247 T10331078 410061033
Loading
Personal Weather Stations






























Interactive Weather Map New forecast layout! Learn more

10-Day Weather Forecast

Advertisements
Track Severe Weather on mobile